createdAt,value
2023-04-25T00:04:31.164Z,100.00
2023-04-25T00:14:37.812Z,100.00
2023-04-25T00:24:45.895Z,100.00
2023-04-25T00:34:50.790Z,100.00
2023-04-25T00:44:54.453Z,100.00
2023-04-25T00:54:56.617Z,100.00
2023-04-25T01:04:58.758Z,100.00
2023-04-25T01:15:01.740Z,100.00
2023-04-25T01:25:04.045Z,100.00
2023-04-25T01:35:21.598Z,100.00
2023-04-25T01:45:23.543Z,100.00
2023-04-25T01:55:25.357Z,100.00
2023-04-25T02:05:27.363Z,100.00
2023-04-25T02:15:29.225Z,100.00
2023-04-25T02:25:33.526Z,100.00
2023-04-25T02:35:45.541Z,100.00
2023-04-25T02:45:48.309Z,100.00
2023-04-25T02:55:51.002Z,100.00
2023-04-25T03:05:59.238Z,100.00
2023-04-25T03:16:02.991Z,100.00
2023-04-25T03:26:05.310Z,100.00
2023-04-25T03:36:08.521Z,100.00
2023-04-25T03:46:10.285Z,100.00
2023-04-25T03:56:13.006Z,100.00
2023-04-25T04:06:14.888Z,100.00
2023-04-25T04:16:16.674Z,100.00
2023-04-25T04:26:19.925Z,100.00
2023-04-25T04:36:23.041Z,100.00
2023-04-25T04:46:25.958Z,100.00
2023-04-25T04:56:33.069Z,100.00
2023-04-25T05:06:34.730Z,100.00
2023-04-25T05:16:36.620Z,100.00
2023-04-25T05:26:44.142Z,100.00
2023-04-25T05:36:49.429Z,100.00
2023-04-25T05:46:51.288Z,100.00
2023-04-25T05:56:53.049Z,100.00
2023-04-25T06:06:54.674Z,100.00
2023-04-25T06:16:56.411Z,100.00
2023-04-25T06:26:59.079Z,100.00
2023-04-25T06:37:01.844Z,100.00
2023-04-25T06:47:03.544Z,100.00
2023-04-25T06:57:07.685Z,100.00
2023-04-25T07:07:09.544Z,100.00
2023-04-25T07:17:19.167Z,100.00
2023-04-25T07:27:20.854Z,100.00
2023-04-25T07:37:24.597Z,100.00
2023-04-25T07:47:31.771Z,100.00
2023-04-25T07:57:33.471Z,100.00
2023-04-25T08:07:36.092Z,100.00
2023-04-25T08:17:37.756Z,100.00
2023-04-25T08:27:40.006Z,92.34
2023-04-25T08:37:41.643Z,100.00
2023-04-25T08:47:47.529Z,98.44
2023-04-25T08:57:50.704Z,98.84
2023-04-25T09:07:52.376Z,100.00
2023-04-25T09:17:58.866Z,84.71
2023-04-25T09:28:05.393Z,64.84
2023-04-25T09:38:11.573Z,50.83
2023-04-25T09:48:17.989Z,47.09
2023-04-25T09:58:20.033Z,50.77
2023-04-25T10:08:23.618Z,48.34
2023-04-25T10:18:28.301Z,46.80
2023-04-25T10:28:30.012Z,55.14
2023-04-25T10:38:32.781Z,57.71
2023-04-25T10:48:48.084Z,50.63
2023-04-25T10:58:52.099Z,48.29
2023-04-25T11:08:58.974Z,44.41
2023-04-25T11:19:01.237Z,43.33
2023-04-25T11:29:03.514Z,39.05
2023-04-25T11:39:06.265Z,38.09
2023-04-25T11:49:08.002Z,38.02
2023-04-25T11:59:15.976Z,44.79
2023-04-25T12:09:22.381Z,40.35
2023-04-25T12:19:24.587Z,40.38
2023-04-25T12:29:31.780Z,37.87
2023-04-25T12:39:37.280Z,25.56
2023-04-25T12:49:39.064Z,29.34
2023-04-25T12:59:53.457Z,28.89
2023-04-25T13:09:56.829Z,22.80
2023-04-25T13:20:01.843Z,21.24
2023-04-25T13:30:08.104Z,25.28
2023-04-25T13:40:12.937Z,28.03
2023-04-25T13:50:15.802Z,20.55
2023-04-25T14:00:18.798Z,20.32
2023-04-25T14:10:21.779Z,17.02
2023-04-25T14:20:25.819Z,16.36
2023-04-25T14:30:27.648Z,18.43
2023-04-25T14:40:31.456Z,16.68
2023-04-25T14:51:01.243Z,17.24
2023-04-25T15:01:10.645Z,17.75
2023-04-25T15:11:13.291Z,24.81
2023-04-25T15:21:17.938Z,27.27
2023-04-25T15:31:34.510Z,32.34
2023-04-25T15:41:39.228Z,24.99
2023-04-25T15:51:45.489Z,29.76
2023-04-25T16:01:47.274Z,29.08
2023-04-25T16:11:49.358Z,25.84
2023-04-25T16:21:54.547Z,40.83
2023-04-25T16:31:58.528Z,37.13
2023-04-25T16:42:00.902Z,44.32
2023-04-25T16:52:03.997Z,54.61
2023-04-25T17:02:10.725Z,59.16
2023-04-25T17:12:14.295Z,64.98
2023-04-25T17:22:16.690Z,68.76
2023-04-25T17:32:26.847Z,71.13
2023-04-25T17:42:29.114Z,75.47
2023-04-25T17:52:31.687Z,79.03
2023-04-25T18:02:38.321Z,82.85
2023-04-25T18:12:43.196Z,79.72
2023-04-25T18:22:46.785Z,85.03
2023-04-25T18:32:50.214Z,89.86
2023-04-25T18:42:55.708Z,93.36
2023-04-25T18:52:57.782Z,94.67
2023-04-25T19:03:03.776Z,93.82
2023-04-25T19:13:07.125Z,95.42
2023-04-25T19:23:09.732Z,98.73
2023-04-25T19:33:12.086Z,100.00
2023-04-25T19:43:14.719Z,100.00
2023-04-25T19:53:18.107Z,100.00
2023-04-25T20:03:20.284Z,100.00
2023-04-25T20:13:23.662Z,100.00
2023-04-25T20:23:25.915Z,100.00
2023-04-25T20:33:38.010Z,100.00
2023-04-25T20:43:45.116Z,100.00
2023-04-25T20:53:46.830Z,100.00
2023-04-25T21:03:55.389Z,100.00
2023-04-25T21:13:58.330Z,100.00
2023-04-25T21:24:01.165Z,100.00
2023-04-25T21:34:04.171Z,100.00
2023-04-25T21:44:12.952Z,100.00
2023-04-25T21:54:15.652Z,100.00
2023-04-25T22:04:17.834Z,100.00
2023-04-25T22:14:21.455Z,100.00
2023-04-25T22:24:26.851Z,100.00
2023-04-25T22:34:29.679Z,100.00
2023-04-25T22:44:34.506Z,100.00
2023-04-25T22:54:37.645Z,100.00
2023-04-25T23:04:40.335Z,100.00
2023-04-25T23:14:44.236Z,100.00
2023-04-25T23:24:46.971Z,100.00
2023-04-25T23:34:54.461Z,100.00
2023-04-25T23:44:56.116Z,100.00
2023-04-25T23:55:14.243Z,100.00
